sensor_id;sensor_type;location;lat;lon;timestamp;temperature;humidity
23618;DHT22;18207;32.078;34.818;2022-10-17T00:02:17;30.10;41.70
23618;DHT22;18207;32.078;34.818;2022-10-17T00:04:48;30.10;41.70
23618;DHT22;18207;32.078;34.818;2022-10-17T00:07:18;30.10;41.70
23618;DHT22;18207;32.078;34.818;2022-10-17T00:09:48;30.10;41.60
23618;DHT22;18207;32.078;34.818;2022-10-17T00:12:19;30.10;41.50
23618;DHT22;18207;32.078;34.818;2022-10-17T00:14:49;30.10;41.40
23618;DHT22;18207;32.078;34.818;2022-10-17T00:17:20;30.10;41.30
23618;DHT22;18207;32.078;34.818;2022-10-17T00:19:51;30.00;41.30
23618;DHT22;18207;32.078;34.818;2022-10-17T00:22:24;30.10;41.30
23618;DHT22;18207;32.078;34.818;2022-10-17T00:24:56;30.00;41.30
23618;DHT22;18207;32.078;34.818;2022-10-17T00:27:35;30.00;41.30
23618;DHT22;18207;32.078;34.818;2022-10-17T00:30:09;30.00;41.30
23618;DHT22;18207;32.078;34.818;2022-10-17T00:32:42;30.10;41.30
23618;DHT22;18207;32.078;34.818;2022-10-17T00:35:12;30.10;41.30
23618;DHT22;18207;32.078;34.818;2022-10-17T00:37:43;30.10;42.00
23618;DHT22;18207;32.078;34.818;2022-10-17T00:40:13;30.00;41.20
23618;DHT22;18207;32.078;34.818;2022-10-17T00:42:43;30.00;41.20
23618;DHT22;18207;32.078;34.818;2022-10-17T00:45:21;30.00;41.10
23618;DHT22;18207;32.078;34.818;2022-10-17T00:48:02;30.10;41.20
23618;DHT22;18207;32.078;34.818;2022-10-17T00:50:41;30.00;41.20
23618;DHT22;18207;32.078;34.818;2022-10-17T00:53:17;30.00;41.20
23618;DHT22;18207;32.078;34.818;2022-10-17T00:55:49;30.00;41.20
23618;DHT22;18207;32.078;34.818;2022-10-17T00:58:23;30.00;41.20
23618;DHT22;18207;32.078;34.818;2022-10-17T01:00:53;29.90;41.10
23618;DHT22;18207;32.078;34.818;2022-10-17T01:03:25;29.90;41.10
23618;DHT22;18207;32.078;34.818;2022-10-17T01:05:55;29.90;41.10
23618;DHT22;18207;32.078;34.818;2022-10-17T01:08:26;29.90;41.10
23618;DHT22;18207;32.078;34.818;2022-10-17T01:11:03;29.90;41.10
23618;DHT22;18207;32.078;34.818;2022-10-17T01:13:59;29.90;41.10
23618;DHT22;18207;32.078;34.818;2022-10-17T01:16:40;29.80;41.00
23618;DHT22;18207;32.078;34.818;2022-10-17T01:19:39;29.80;41.10
23618;DHT22;18207;32.078;34.818;2022-10-17T01:22:31;29.80;41.00
23618;DHT22;18207;32.078;34.818;2022-10-17T01:25:20;29.80;41.00
23618;DHT22;18207;32.078;34.818;2022-10-17T01:28:17;29.80;41.00
23618;DHT22;18207;32.078;34.818;2022-10-17T01:31:09;29.80;41.00
23618;DHT22;18207;32.078;34.818;2022-10-17T01:33:48;29.70;41.00
23618;DHT22;18207;32.078;34.818;2022-10-17T01:36:36;29.70;41.00
23618;DHT22;18207;32.078;34.818;2022-10-17T01:39:40;29.70;41.00
23618;DHT22;18207;32.078;34.818;2022-10-17T01:42:17;29.70;41.00
23618;DHT22;18207;32.078;34.818;2022-10-17T01:44:55;29.70;41.00
23618;DHT22;18207;32.078;34.818;2022-10-17T01:47:32;29.70;41.00
23618;DHT22;18207;32.078;34.818;2022-10-17T01:50:21;29.60;40.90
23618;DHT22;18207;32.078;34.818;2022-10-17T01:52:56;29.60;41.00
23618;DHT22;18207;32.078;34.818;2022-10-17T01:55:32;29.60;41.00
23618;DHT22;18207;32.078;34.818;2022-10-17T01:58:08;29.60;41.00
23618;DHT22;18207;32.078;34.818;2022-10-17T02:00:42;29.60;41.00
23618;DHT22;18207;32.078;34.818;2022-10-17T02:03:20;29.60;41.10
23618;DHT22;18207;32.078;34.818;2022-10-17T02:05:56;29.50;41.00
23618;DHT22;18207;32.078;34.818;2022-10-17T02:08:28;29.50;41.00
23618;DHT22;18207;32.078;34.818;2022-10-17T02:11:19;29.50;41.00
23618;DHT22;18207;32.078;34.818;2022-10-17T02:14:03;29.50;41.00
23618;DHT22;18207;32.078;34.818;2022-10-17T02:16:54;29.50;41.00
23618;DHT22;18207;32.078;34.818;2022-10-17T02:20:05;29.50;41.00
23618;DHT22;18207;32.078;34.818;2022-10-17T02:23:01;29.50;41.00
23618;DHT22;18207;32.078;34.818;2022-10-17T02:28:59;29.40;41.00
23618;DHT22;18207;32.078;34.818;2022-10-17T02:31:44;29.40;41.00
23618;DHT22;18207;32.078;34.818;2022-10-17T02:34:18;29.40;40.90
23618;DHT22;18207;32.078;34.818;2022-10-17T02:37:06;29.40;41.10
23618;DHT22;18207;32.078;34.818;2022-10-17T02:39:39;29.40;41.20
23618;DHT22;18207;32.078;34.818;2022-10-17T02:42:15;29.40;41.20
23618;DHT22;18207;32.078;34.818;2022-10-17T02:44:47;29.30;41.20
23618;DHT22;18207;32.078;34.818;2022-10-17T02:47:22;29.30;41.20
23618;DHT22;18207;32.078;34.818;2022-10-17T02:49:56;29.40;41.30
23618;DHT22;18207;32.078;34.818;2022-10-17T02:52:41;29.40;41.30
23618;DHT22;18207;32.078;34.818;2022-10-17T02:55:22;29.30;41.20
23618;DHT22;18207;32.078;34.818;2022-10-17T02:57:58;29.30;41.40
23618;DHT22;18207;32.078;34.818;2022-10-17T03:00:42;29.30;41.20
23618;DHT22;18207;32.078;34.818;2022-10-17T03:03:21;29.30;41.20
23618;DHT22;18207;32.078;34.818;2022-10-17T03:05:53;29.30;41.20
23618;DHT22;18207;32.078;34.818;2022-10-17T03:08:25;29.30;41.20
23618;DHT22;18207;32.078;34.818;2022-10-17T03:10:55;29.30;41.20
23618;DHT22;18207;32.078;34.818;2022-10-17T03:13:25;29.30;41.10
23618;DHT22;18207;32.078;34.818;2022-10-17T03:15:56;29.30;41.20
23618;DHT22;18207;32.078;34.818;2022-10-17T03:18:26;29.20;41.00
23618;DHT22;18207;32.078;34.818;2022-10-17T03:20:59;29.20;41.00
23618;DHT22;18207;32.078;34.818;2022-10-17T03:23:30;29.20;41.00
23618;DHT22;18207;32.078;34.818;2022-10-17T03:26:02;29.10;40.90
23618;DHT22;18207;32.078;34.818;2022-10-17T03:28:35;29.10;40.90
23618;DHT22;18207;32.078;34.818;2022-10-17T03:31:09;29.10;40.90
23618;DHT22;18207;32.078;34.818;2022-10-17T03:33:42;29.10;41.00
23618;DHT22;18207;32.078;34.818;2022-10-17T03:36:16;29.10;41.00
23618;DHT22;18207;32.078;34.818;2022-10-17T03:38:49;29.10;41.00
23618;DHT22;18207;32.078;34.818;2022-10-17T03:41:22;29.10;41.10
23618;DHT22;18207;32.078;34.818;2022-10-17T03:43:52;29.00;41.00
23618;DHT22;18207;32.078;34.818;2022-10-17T03:46:22;29.00;41.00
23618;DHT22;18207;32.078;34.818;2022-10-17T03:48:53;29.00;41.00
23618;DHT22;18207;32.078;34.818;2022-10-17T03:51:25;29.00;41.00
23618;DHT22;18207;32.078;34.818;2022-10-17T03:53:57;29.00;41.00
23618;DHT22;18207;32.078;34.818;2022-10-17T03:56:30;29.00;41.00
23618;DHT22;18207;32.078;34.818;2022-10-17T03:59:00;29.00;40.90
23618;DHT22;18207;32.078;34.818;2022-10-17T04:01:31;29.00;41.00
23618;DHT22;18207;32.078;34.818;2022-10-17T04:04:02;29.00;41.00
23618;DHT22;18207;32.078;34.818;2022-10-17T04:06:32;29.00;41.70
23618;DHT22;18207;32.078;34.818;2022-10-17T04:09:05;28.90;40.90
23618;DHT22;18207;32.078;34.818;2022-10-17T04:11:51;28.90;41.00
23618;DHT22;18207;32.078;34.818;2022-10-17T04:14:21;28.90;41.00
23618;DHT22;18207;32.078;34.818;2022-10-17T04:16:51;28.90;41.00
23618;DHT22;18207;32.078;34.818;2022-10-17T04:19:21;28.90;41.00
23618;DHT22;18207;32.078;34.818;2022-10-17T04:21:52;28.90;41.00
23618;DHT22;18207;32.078;34.818;2022-10-17T04:24:28;28.90;41.00
23618;DHT22;18207;32.078;34.818;2022-10-17T04:26:58;28.90;41.10
23618;DHT22;18207;32.078;34.818;2022-10-17T04:29:28;28.90;41.20
23618;DHT22;18207;32.078;34.818;2022-10-17T04:31:58;28.90;41.30
23618;DHT22;18207;32.078;34.818;2022-10-17T04:34:28;29.00;41.30
23618;DHT22;18207;32.078;34.818;2022-10-17T04:36:58;29.00;41.30
23618;DHT22;18207;32.078;34.818;2022-10-17T04:39:30;29.00;41.40
23618;DHT22;18207;32.078;34.818;2022-10-17T04:42:01;29.10;41.50
23618;DHT22;18207;32.078;34.818;2022-10-17T04:44:31;29.10;41.50
23618;DHT22;18207;32.078;34.818;2022-10-17T04:47:02;29.20;41.50
23618;DHT22;18207;32.078;34.818;2022-10-17T04:49:32;29.30;41.60
23618;DHT22;18207;32.078;34.818;2022-10-17T04:52:03;29.40;41.50
23618;DHT22;18207;32.078;34.818;2022-10-17T04:54:34;29.40;41.50
23618;DHT22;18207;32.078;34.818;2022-10-17T04:57:04;29.50;41.40
23618;DHT22;18207;32.078;34.818;2022-10-17T04:59:35;29.60;41.50
23618;DHT22;18207;32.078;34.818;2022-10-17T05:02:05;29.70;41.50
23618;DHT22;18207;32.078;34.818;2022-10-17T05:04:36;29.80;41.50
23618;DHT22;18207;32.078;34.818;2022-10-17T05:07:07;29.90;41.50
23618;DHT22;18207;32.078;34.818;2022-10-17T05:09:53;30.00;41.50
23618;DHT22;18207;32.078;34.818;2022-10-17T05:12:29;30.10;41.40
23618;DHT22;18207;32.078;34.818;2022-10-17T05:15:02;30.20;41.30
23618;DHT22;18207;32.078;34.818;2022-10-17T05:17:32;30.30;41.40
23618;DHT22;18207;32.078;34.818;2022-10-17T05:20:07;30.50;41.50
23618;DHT22;18207;32.078;34.818;2022-10-17T05:22:37;30.60;41.40
23618;DHT22;18207;32.078;34.818;2022-10-17T05:25:41;30.70;41.30
23618;DHT22;18207;32.078;34.818;2022-10-17T05:28:17;30.80;41.80
23618;DHT22;18207;32.078;34.818;2022-10-17T05:30:47;30.90;41.10
23618;DHT22;18207;32.078;34.818;2022-10-17T05:33:17;31.10;41.10
23618;DHT22;18207;32.078;34.818;2022-10-17T05:35:48;31.10;41.10
23618;DHT22;18207;32.078;34.818;2022-10-17T05:38:18;31.30;41.10
23618;DHT22;18207;32.078;34.818;2022-10-17T05:40:50;31.40;41.10
23618;DHT22;18207;32.078;34.818;2022-10-17T05:43:20;31.50;41.00
23618;DHT22;18207;32.078;34.818;2022-10-17T05:45:50;31.60;41.00
23618;DHT22;18207;32.078;34.818;2022-10-17T05:48:21;31.70;40.90
23618;DHT22;18207;32.078;34.818;2022-10-17T05:50:57;31.80;40.80
23618;DHT22;18207;32.078;34.818;2022-10-17T05:53:30;31.90;40.80
23618;DHT22;18207;32.078;34.818;2022-10-17T05:56:07;32.10;40.80
23618;DHT22;18207;32.078;34.818;2022-10-17T05:58:40;32.20;40.70
23618;DHT22;18207;32.078;34.818;2022-10-17T06:01:19;32.30;40.60
23618;DHT22;18207;32.078;34.818;2022-10-17T06:03:52;32.40;40.50
23618;DHT22;18207;32.078;34.818;2022-10-17T06:06:22;32.50;40.40
23618;DHT22;18207;32.078;34.818;2022-10-17T06:08:52;32.60;40.40
23618;DHT22;18207;32.078;34.818;2022-10-17T06:11:30;32.70;40.30
23618;DHT22;18207;32.078;34.818;2022-10-17T06:14:01;32.80;40.80
23618;DHT22;18207;32.078;34.818;2022-10-17T06:16:32;32.90;40.20
23618;DHT22;18207;32.078;34.818;2022-10-17T06:19:02;33.00;40.10
23618;DHT22;18207;32.078;34.818;2022-10-17T06:21:32;33.10;40.10
23618;DHT22;18207;32.078;34.818;2022-10-17T06:24:04;33.20;40.00
23618;DHT22;18207;32.078;34.818;2022-10-17T06:26:36;33.30;40.00
23618;DHT22;18207;32.078;34.818;2022-10-17T06:29:07;33.40;39.90
23618;DHT22;18207;32.078;34.818;2022-10-17T06:31:38;33.40;39.80
23618;DHT22;18207;32.078;34.818;2022-10-17T06:34:09;33.60;39.70
23618;DHT22;18207;32.078;34.818;2022-10-17T06:36:39;33.70;39.70
23618;DHT22;18207;32.078;34.818;2022-10-17T06:39:09;33.70;39.60
23618;DHT22;18207;32.078;34.818;2022-10-17T06:41:41;33.80;39.50
23618;DHT22;18207;32.078;34.818;2022-10-17T06:44:11;34.00;39.50
23618;DHT22;18207;32.078;34.818;2022-10-17T06:46:41;34.00;39.30
23618;DHT22;18207;32.078;34.818;2022-10-17T06:49:12;34.10;39.10
23618;DHT22;18207;32.078;34.818;2022-10-17T06:51:45;34.20;39.10
23618;DHT22;18207;32.078;34.818;2022-10-17T06:54:15;34.20;38.90
23618;DHT22;18207;32.078;34.818;2022-10-17T06:56:47;34.30;38.80
23618;DHT22;18207;32.078;34.818;2022-10-17T06:59:23;34.40;38.60
23618;DHT22;18207;32.078;34.818;2022-10-17T07:01:53;34.50;38.50
23618;DHT22;18207;32.078;34.818;2022-10-17T07:04:23;34.50;38.50
23618;DHT22;18207;32.078;34.818;2022-10-17T07:07:02;34.60;38.40
23618;DHT22;18207;32.078;34.818;2022-10-17T07:09:33;34.60;38.20
23618;DHT22;18207;32.078;34.818;2022-10-17T07:12:08;34.60;38.00
23618;DHT22;18207;32.078;34.818;2022-10-17T07:14:42;34.70;37.90
23618;DHT22;18207;32.078;34.818;2022-10-17T07:17:23;34.70;37.80
23618;DHT22;18207;32.078;34.818;2022-10-17T07:19:53;34.80;37.60
23618;DHT22;18207;32.078;34.818;2022-10-17T07:22:24;34.90;37.70
23618;DHT22;18207;32.078;34.818;2022-10-17T07:24:54;34.90;37.70
23618;DHT22;18207;32.078;34.818;2022-10-17T07:27:25;35.00;37.80
23618;DHT22;18207;32.078;34.818;2022-10-17T07:29:56;35.00;37.70
23618;DHT22;18207;32.078;34.818;2022-10-17T07:32:27;35.10;37.80
23618;DHT22;18207;32.078;34.818;2022-10-17T07:34:57;35.10;37.70
23618;DHT22;18207;32.078;34.818;2022-10-17T07:37:28;35.20;37.60
23618;DHT22;18207;32.078;34.818;2022-10-17T07:39:59;35.20;37.50
23618;DHT22;18207;32.078;34.818;2022-10-17T07:42:32;35.30;37.50
23618;DHT22;18207;32.078;34.818;2022-10-17T07:45:07;35.40;37.60
23618;DHT22;18207;32.078;34.818;2022-10-17T07:47:40;35.40;37.40
23618;DHT22;18207;32.078;34.818;2022-10-17T07:50:11;35.50;37.30
23618;DHT22;18207;32.078;34.818;2022-10-17T07:52:44;35.60;37.50
23618;DHT22;18207;32.078;34.818;2022-10-17T07:55:23;35.60;37.10
23618;DHT22;18207;32.078;34.818;2022-10-17T07:57:56;35.70;37.00
23618;DHT22;18207;32.078;34.818;2022-10-17T08:00:28;35.70;37.00
23618;DHT22;18207;32.078;34.818;2022-10-17T08:03:00;35.80;37.00
23618;DHT22;18207;32.078;34.818;2022-10-17T08:05:30;35.90;37.00
23618;DHT22;18207;32.078;34.818;2022-10-17T08:08:06;35.90;36.90
23618;DHT22;18207;32.078;34.818;2022-10-17T08:10:42;36.00;36.80
23618;DHT22;18207;32.078;34.818;2022-10-17T08:13:17;36.00;36.70
23618;DHT22;18207;32.078;34.818;2022-10-17T08:15:47;36.10;36.60
23618;DHT22;18207;32.078;34.818;2022-10-17T08:18:17;36.20;36.50
23618;DHT22;18207;32.078;34.818;2022-10-17T08:20:48;36.20;36.40
23618;DHT22;18207;32.078;34.818;2022-10-17T08:23:21;36.30;36.20
23618;DHT22;18207;32.078;34.818;2022-10-17T08:25:51;36.30;36.00
23618;DHT22;18207;32.078;34.818;2022-10-17T08:28:24;36.30;35.80
23618;DHT22;18207;32.078;34.818;2022-10-17T08:31:07;36.30;35.80
23618;DHT22;18207;32.078;34.818;2022-10-17T08:33:54;36.30;35.40
23618;DHT22;18207;32.078;34.818;2022-10-17T08:36:27;36.30;35.50
23618;DHT22;18207;32.078;34.818;2022-10-17T08:38:58;36.30;35.30
23618;DHT22;18207;32.078;34.818;2022-10-17T08:41:42;36.20;35.20
23618;DHT22;18207;32.078;34.818;2022-10-17T08:44:36;36.20;35.10
23618;DHT22;18207;32.078;34.818;2022-10-17T08:47:20;36.10;34.90
23618;DHT22;18207;32.078;34.818;2022-10-17T08:50:00;36.10;35.00
23618;DHT22;18207;32.078;34.818;2022-10-17T08:52:37;36.00;35.00
23618;DHT22;18207;32.078;34.818;2022-10-17T08:55:14;36.00;35.00
23618;DHT22;18207;32.078;34.818;2022-10-17T08:57:51;36.00;35.00
23618;DHT22;18207;32.078;34.818;2022-10-17T09:00:28;35.90;35.00
23618;DHT22;18207;32.078;34.818;2022-10-17T09:03:13;35.90;34.80
23618;DHT22;18207;32.078;34.818;2022-10-17T09:06:08;35.90;34.80
23618;DHT22;18207;32.078;34.818;2022-10-17T09:09:06;35.80;34.70
23618;DHT22;18207;32.078;34.818;2022-10-17T09:12:04;35.80;34.50
23618;DHT22;18207;32.078;34.818;2022-10-17T09:15:09;35.70;34.60
23618;DHT22;18207;32.078;34.818;2022-10-17T09:18:06;35.70;34.50
23618;DHT22;18207;32.078;34.818;2022-10-17T09:20:50;35.70;34.50
23618;DHT22;18207;32.078;34.818;2022-10-17T09:23:26;35.60;34.50
23618;DHT22;18207;32.078;34.818;2022-10-17T09:26:10;35.60;34.60
23618;DHT22;18207;32.078;34.818;2022-10-17T09:28:42;35.50;34.70
23618;DHT22;18207;32.078;34.818;2022-10-17T09:31:19;35.50;34.70
23618;DHT22;18207;32.078;34.818;2022-10-17T09:34:07;35.40;34.70
23618;DHT22;18207;32.078;34.818;2022-10-17T09:36:54;35.40;34.70
23618;DHT22;18207;32.078;34.818;2022-10-17T09:39:28;35.30;34.70
23618;DHT22;18207;32.078;34.818;2022-10-17T09:42:00;35.30;34.70
23618;DHT22;18207;32.078;34.818;2022-10-17T09:44:49;35.20;34.80
23618;DHT22;18207;32.078;34.818;2022-10-17T09:47:28;35.20;34.70
23618;DHT22;18207;32.078;34.818;2022-10-17T09:50:09;35.10;34.70
23618;DHT22;18207;32.078;34.818;2022-10-17T09:53:09;35.10;34.50
23618;DHT22;18207;32.078;34.818;2022-10-17T09:56:14;35.10;34.50
23618;DHT22;18207;32.078;34.818;2022-10-17T09:58:50;35.00;34.80
23618;DHT22;18207;32.078;34.818;2022-10-17T10:01:29;34.90;33.90
23618;DHT22;18207;32.078;34.818;2022-10-17T10:04:10;34.90;34.00
23618;DHT22;18207;32.078;34.818;2022-10-17T10:07:02;34.80;33.90
23618;DHT22;18207;32.078;34.818;2022-10-17T10:09:36;34.70;33.70
23618;DHT22;18207;32.078;34.818;2022-10-17T10:12:18;34.70;33.90
23618;DHT22;18207;32.078;34.818;2022-10-17T10:14:50;34.60;33.80
23618;DHT22;18207;32.078;34.818;2022-10-17T10:17:28;34.60;34.00
23618;DHT22;18207;32.078;34.818;2022-10-17T10:20:28;34.50;33.90
23618;DHT22;18207;32.078;34.818;2022-10-17T10:23:11;34.50;34.00
23618;DHT22;18207;32.078;34.818;2022-10-17T10:25:54;34.50;34.10
23618;DHT22;18207;32.078;34.818;2022-10-17T10:28:31;34.40;34.00
23618;DHT22;18207;32.078;34.818;2022-10-17T10:31:13;34.40;34.20
23618;DHT22;18207;32.078;34.818;2022-10-17T10:34:17;34.40;34.10
23618;DHT22;18207;32.078;34.818;2022-10-17T10:36:56;34.30;34.10
23618;DHT22;18207;32.078;34.818;2022-10-17T10:39:41;34.30;34.30
23618;DHT22;18207;32.078;34.818;2022-10-17T10:42:23;34.30;34.30
23618;DHT22;18207;32.078;34.818;2022-10-17T10:45:00;34.20;34.40
23618;DHT22;18207;32.078;34.818;2022-10-17T10:47:38;34.20;34.50
23618;DHT22;18207;32.078;34.818;2022-10-17T10:50:24;34.10;34.40
23618;DHT22;18207;32.078;34.818;2022-10-17T10:53:18;34.10;34.40
23618;DHT22;18207;32.078;34.818;2022-10-17T10:56:09;34.10;34.40
23618;DHT22;18207;32.078;34.818;2022-10-17T10:58:53;34.10;34.50
23618;DHT22;18207;32.078;34.818;2022-10-17T11:01:40;34.00;34.60
23618;DHT22;18207;32.078;34.818;2022-10-17T11:04:34;34.00;34.80
23618;DHT22;18207;32.078;34.818;2022-10-17T11:07:14;34.00;34.90
23618;DHT22;18207;32.078;34.818;2022-10-17T11:09:57;33.90;34.90
23618;DHT22;18207;32.078;34.818;2022-10-17T11:12:37;33.90;35.00
23618;DHT22;18207;32.078;34.818;2022-10-17T11:15:22;33.80;35.00
23618;DHT22;18207;32.078;34.818;2022-10-17T11:18:01;33.80;35.10
23618;DHT22;18207;32.078;34.818;2022-10-17T11:20:54;33.80;35.20
23618;DHT22;18207;32.078;34.818;2022-10-17T11:23:36;33.70;35.30
23618;DHT22;18207;32.078;34.818;2022-10-17T11:26:16;33.70;35.30
23618;DHT22;18207;32.078;34.818;2022-10-17T11:28:58;33.60;35.40
23618;DHT22;18207;32.078;34.818;2022-10-17T11:31:36;33.60;35.40
23618;DHT22;18207;32.078;34.818;2022-10-17T11:34:22;33.60;35.40
23618;DHT22;18207;32.078;34.818;2022-10-17T11:36:58;33.60;35.50
23618;DHT22;18207;32.078;34.818;2022-10-17T11:39:48;33.50;35.60
23618;DHT22;18207;32.078;34.818;2022-10-17T11:42:51;33.40;35.80
23618;DHT22;18207;32.078;34.818;2022-10-17T11:45:33;33.40;35.90
23618;DHT22;18207;32.078;34.818;2022-10-17T11:48:20;33.40;35.90
23618;DHT22;18207;32.078;34.818;2022-10-17T11:51:08;33.30;35.90
23618;DHT22;18207;32.078;34.818;2022-10-17T11:54:06;33.30;36.00
23618;DHT22;18207;32.078;34.818;2022-10-17T11:57:05;33.30;36.10
23618;DHT22;18207;32.078;34.818;2022-10-17T12:00:06;33.20;36.30
23618;DHT22;18207;32.078;34.818;2022-10-17T12:03:11;33.20;36.30
23618;DHT22;18207;32.078;34.818;2022-10-17T12:05:54;33.10;36.30
23618;DHT22;18207;32.078;34.818;2022-10-17T12:08:44;33.00;36.20
23618;DHT22;18207;32.078;34.818;2022-10-17T12:11:30;33.00;36.30
23618;DHT22;18207;32.078;34.818;2022-10-17T12:14:35;33.00;36.40
23618;DHT22;18207;32.078;34.818;2022-10-17T12:17:31;33.00;36.70
23618;DHT22;18207;32.078;34.818;2022-10-17T12:20:40;32.90;36.70
23618;DHT22;18207;32.078;34.818;2022-10-17T12:23:27;32.80;36.80
23618;DHT22;18207;32.078;34.818;2022-10-17T12:25:59;32.90;36.90
23618;DHT22;18207;32.078;34.818;2022-10-17T12:28:33;32.80;36.80
23618;DHT22;18207;32.078;34.818;2022-10-17T12:31:22;32.80;36.90
23618;DHT22;18207;32.078;34.818;2022-10-17T12:34:01;32.80;37.10
23618;DHT22;18207;32.078;34.818;2022-10-17T12:36:49;32.80;37.10
23618;DHT22;18207;32.078;34.818;2022-10-17T12:39:49;32.70;37.10
23618;DHT22;18207;32.078;34.818;2022-10-17T12:45:46;32.70;37.10
23618;DHT22;18207;32.078;34.818;2022-10-17T12:55:31;32.60;37.10
23618;DHT22;18207;32.078;34.818;2022-10-17T12:58:05;32.60;37.10
23618;DHT22;18207;32.078;34.818;2022-10-17T13:00:45;32.60;37.10
23618;DHT22;18207;32.078;34.818;2022-10-17T13:03:42;32.60;37.20
23618;DHT22;18207;32.078;34.818;2022-10-17T13:06:20;32.50;37.20
23618;DHT22;18207;32.078;34.818;2022-10-17T13:08:59;32.50;37.20
23618;DHT22;18207;32.078;34.818;2022-10-17T13:11:34;32.50;37.20
23618;DHT22;18207;32.078;34.818;2022-10-17T13:14:11;32.50;37.20
23618;DHT22;18207;32.078;34.818;2022-10-17T13:16:53;32.40;37.20
23618;DHT22;18207;32.078;34.818;2022-10-17T13:19:26;32.40;37.20
23618;DHT22;18207;32.078;34.818;2022-10-17T13:22:00;32.40;37.20
23618;DHT22;18207;32.078;34.818;2022-10-17T13:24:36;32.30;37.20
23618;DHT22;18207;32.078;34.818;2022-10-17T13:27:25;32.30;37.30
23618;DHT22;18207;32.078;34.818;2022-10-17T13:29:59;32.30;37.40
23618;DHT22;18207;32.078;34.818;2022-10-17T13:32:42;32.30;37.40
23618;DHT22;18207;32.078;34.818;2022-10-17T13:35:29;32.20;37.40
23618;DHT22;18207;32.078;34.818;2022-10-17T13:38:37;32.20;38.10
23618;DHT22;18207;32.078;34.818;2022-10-17T13:41:12;32.20;37.60
23618;DHT22;18207;32.078;34.818;2022-10-17T13:44:11;32.20;37.60
23618;DHT22;18207;32.078;34.818;2022-10-17T13:46:44;32.20;37.70
23618;DHT22;18207;32.078;34.818;2022-10-17T13:49:19;32.10;37.70
23618;DHT22;18207;32.078;34.818;2022-10-17T13:51:55;32.20;37.80
23618;DHT22;18207;32.078;34.818;2022-10-17T13:54:38;32.20;37.80
23618;DHT22;18207;32.078;34.818;2022-10-17T13:57:19;32.10;37.90
23618;DHT22;18207;32.078;34.818;2022-10-17T13:59:56;32.10;37.90
23618;DHT22;18207;32.078;34.818;2022-10-17T14:02:29;32.10;37.90
23618;DHT22;18207;32.078;34.818;2022-10-17T14:05:02;32.00;37.80
23618;DHT22;18207;32.078;34.818;2022-10-17T14:07:54;32.00;37.90
23618;DHT22;18207;32.078;34.818;2022-10-17T14:10:50;32.00;38.00
23618;DHT22;18207;32.078;34.818;2022-10-17T14:13:31;32.00;38.00
23618;DHT22;18207;32.078;34.818;2022-10-17T14:16:03;32.00;38.10
23618;DHT22;18207;32.078;34.818;2022-10-17T14:18:36;32.00;38.10
23618;DHT22;18207;32.078;34.818;2022-10-17T14:21:07;32.00;38.20
23618;DHT22;18207;32.078;34.818;2022-10-17T14:24:21;32.00;38.20
23618;DHT22;18207;32.078;34.818;2022-10-17T14:26:58;32.00;38.40
23618;DHT22;18207;32.078;34.818;2022-10-17T14:29:48;32.00;38.20
23618;DHT22;18207;32.078;34.818;2022-10-17T14:32:20;32.00;38.30
23618;DHT22;18207;32.078;34.818;2022-10-17T14:34:55;31.90;38.20
23618;DHT22;18207;32.078;34.818;2022-10-17T14:37:50;31.90;38.30
23618;DHT22;18207;32.078;34.818;2022-10-17T14:40:31;31.90;39.00
23618;DHT22;18207;32.078;34.818;2022-10-17T14:43:04;31.90;38.40
23618;DHT22;18207;32.078;34.818;2022-10-17T14:45:37;31.80;38.40
23618;DHT22;18207;32.078;34.818;2022-10-17T14:48:11;31.80;38.40
23618;DHT22;18207;32.078;34.818;2022-10-17T14:51:06;31.80;38.50
23618;DHT22;18207;32.078;34.818;2022-10-17T14:53:42;31.80;38.60
23618;DHT22;18207;32.078;34.818;2022-10-17T14:56:38;31.80;38.60
23618;DHT22;18207;32.078;34.818;2022-10-17T14:59:10;31.80;38.60
23618;DHT22;18207;32.078;34.818;2022-10-17T15:02:03;31.70;38.60
23618;DHT22;18207;32.078;34.818;2022-10-17T15:04:33;31.70;38.60
23618;DHT22;18207;32.078;34.818;2022-10-17T15:07:03;31.70;38.60
23618;DHT22;18207;32.078;34.818;2022-10-17T15:09:34;31.70;38.70
23618;DHT22;18207;32.078;34.818;2022-10-17T15:12:12;31.60;38.60
23618;DHT22;18207;32.078;34.818;2022-10-17T15:14:45;31.60;38.70
23618;DHT22;18207;32.078;34.818;2022-10-17T15:17:20;31.60;38.70
23618;DHT22;18207;32.078;34.818;2022-10-17T15:19:57;31.60;38.90
23618;DHT22;18207;32.078;34.818;2022-10-17T15:22:28;31.60;38.90
23618;DHT22;18207;32.078;34.818;2022-10-17T15:25:02;31.60;38.90
23618;DHT22;18207;32.078;34.818;2022-10-17T15:27:37;31.60;38.90
23618;DHT22;18207;32.078;34.818;2022-10-17T15:30:20;31.50;38.90
23618;DHT22;18207;32.078;34.818;2022-10-17T15:32:53;31.50;39.10
23618;DHT22;18207;32.078;34.818;2022-10-17T15:35:35;31.50;39.00
23618;DHT22;18207;32.078;34.818;2022-10-17T15:38:33;31.50;39.10
23618;DHT22;18207;32.078;34.818;2022-10-17T15:41:08;31.50;39.10
23618;DHT22;18207;32.078;34.818;2022-10-17T15:43:51;31.40;39.10
23618;DHT22;18207;32.078;34.818;2022-10-17T15:46:33;31.40;39.20
23618;DHT22;18207;32.078;34.818;2022-10-17T15:49:08;31.40;39.10
23618;DHT22;18207;32.078;34.818;2022-10-17T15:51:49;31.40;39.20
23618;DHT22;18207;32.078;34.818;2022-10-17T15:54:23;31.40;39.20
23618;DHT22;18207;32.078;34.818;2022-10-17T15:56:55;31.40;39.20
23618;DHT22;18207;32.078;34.818;2022-10-17T15:59:33;31.30;39.20
23618;DHT22;18207;32.078;34.818;2022-10-17T16:02:07;31.30;39.30
23618;DHT22;18207;32.078;34.818;2022-10-17T16:04:42;31.20;39.30
23618;DHT22;18207;32.078;34.818;2022-10-17T16:07:13;31.30;39.40
23618;DHT22;18207;32.078;34.818;2022-10-17T16:09:44;31.20;39.40
23618;DHT22;18207;32.078;34.818;2022-10-17T16:12:17;31.20;39.50
23618;DHT22;18207;32.078;34.818;2022-10-17T16:15:12;31.20;39.60
23618;DHT22;18207;32.078;34.818;2022-10-17T16:17:57;31.20;39.70
23618;DHT22;18207;32.078;34.818;2022-10-17T16:20:34;31.20;39.70
23618;DHT22;18207;32.078;34.818;2022-10-17T16:23:05;31.20;39.80
23618;DHT22;18207;32.078;34.818;2022-10-17T16:25:38;31.20;39.80
23618;DHT22;18207;32.078;34.818;2022-10-17T16:28:09;31.20;39.90
23618;DHT22;18207;32.078;34.818;2022-10-17T16:30:44;31.20;39.90
23618;DHT22;18207;32.078;34.818;2022-10-17T16:33:25;31.20;39.90
23618;DHT22;18207;32.078;34.818;2022-10-17T16:36:11;31.20;39.90
23618;DHT22;18207;32.078;34.818;2022-10-17T16:38:41;31.20;39.90